LYNI/INI METAR and TAF weather

Enter ICAO airport designator
Station Type Date Time Source
LYNI METAR 2022/05/26 05:00 UTC NOAA

LYNI 260500Z 33009KT 290V350 CAVOK 20/15 Q1020 NOSIG


Station Type Date Time Source
LYNI Decoded METAR 2022/05/26 05:00 UTC NOAA

Nis, Serbia and Montenegro (LYNI) 43-20N 021-54E 202M
May 26, 2022 - 01:00 AM EDT / 2022.05.26 0500 UTC
Wind: from the NNW (330 degrees) at 10 MPH (9 KT) (direction variable):0
Visibility: greater than 7 mile(s):0
Temperature: 68 F (20 C)
Dew Point: 59 F (15 C)
Relative Humidity: 72%
Pressure (altimeter): 30.12 in. Hg (1020 hPa)
ob: LYNI 260500Z 33009KT 290V350 CAVOK 20/15 Q1020 NOSIG
cycle: 5

Station Type Date Time Source
LYNI TAF 2022/05/26 06:23 UTC NOAA

TAF LYNI 260500Z 2606/2706 33013KT CAVOK TX28/2614Z TN14/2704Z
BECMG 2617/2619 07005KT

Example: see airport list